| Date | Time | Temp. (oF) | Dew Point (oF) | Rel. Hum. (%) | Press. (in.) | Wind Dir. | Wind Speed (mph) | Hourly Rainfall (in.) |
|
|---|---|---|---|---|---|---|---|---|---|
| 1 | 04/04 | 00:00 | 53 | 50 | 91 | 30.01 | ENE | 2 | 0.00 |
| 2 | 04/03 | 23:00 | 53 | 49 | 88 | 30.00 | ESE | 3 | 0.00 |
| 3 | 04/03 | 22:00 | 55 | 50 | 85 | 29.99 | SE | 2 | 0.00 |
| 4 | 04/03 | 21:00 | 57 | 51 | 81 | 29.99 | ESE | 6 | 0.00 |
| 5 | 04/03 | 20:00 | 60 | 52 | 76 | 29.98 | ESE | 3 | 0.00 |
| 6 | 04/03 | 19:00 | 64 | 53 | 69 | 29.94 | E | 8 | 0.00 |
| 7 | 04/03 | 18:00 | 70 | 52 | 54 | 29.94 | SSE | 4 | 0.00 |
| 8 | 04/03 | 17:00 | 71 | 52 | 53 | 29.96 | SSW | 7 | 0.00 |
| 9 | 04/03 | 16:00 | 70 | 54 | 59 | 29.99 | SSW | 13 | 0.00 |
| 10 | 04/03 | 15:00 | 68 | 53 | 61 | 30.01 | SW | 8 | 0.00 |
| 11 | 04/03 | 14:00 | 65 | 55 | 71 | 30.05 | SSW | 8 | 0.00 |
| 12 | 04/03 | 13:00 | 57 | 52 | 85 | 30.08 | SSW | 12 | 0.00 |
| 13 | 04/03 | 12:00 | 53 | 49 | 89 | 30.10 | SSW | 7 | 0.00 |
| 14 | 04/03 | 11:00 | 53 | 50 | 91 | 30.10 | SSW | 5 | 0.00 |
| 15 | 04/03 | 10:00 | 52 | 49 | 90 | 30.12 | SSW | 5 | 0.00 |
| 16 | 04/03 | 09:00 | 49 | 47 | 96 | 30.12 | SE | 3 | 0.00 |
| 17 | 04/03 | 08:00 | 47 | 46 | 98 | 30.14 | SSW | 3 | 0.00 |
| 18 | 04/03 | 07:00 | 45 | 44 | 97 | 30.13 | SE | 2 | 0.00 |
| 19 | 04/03 | 06:00 | 45 | 43 | 96 | 30.13 | ESE | 2 | 0.00 |
| 20 | 04/03 | 05:00 | 47 | 45 | 94 | 30.13 | SE | 1 | 0.00 |
| 21 | 04/03 | 04:00 | 47 | 44 | 92 | 30.13 | E | 2 | 0.00 |
| 22 | 04/03 | 03:00 | 48 | 45 | 90 | 30.14 | ESE | 1 | 0.00 |
| 23 | 04/03 | 02:00 | 49 | 45 | 87 | 30.15 | E | 1 | 0.00 |
| 24 | 04/03 | 01:00 | 51 | 46 | 84 | 30.15 | SE | 1 | 0.00 |